createdAt,value
2018-03-19T00:00:10.239Z,45.80
2018-03-19T00:02:38.535Z,46.10
2018-03-19T00:05:06.758Z,46.00
2018-03-19T00:07:35.049Z,46.10
2018-03-19T00:10:03.374Z,45.90
2018-03-19T00:12:31.618Z,45.80
2018-03-19T00:15:00.654Z,45.80
2018-03-19T00:17:29.708Z,45.60
2018-03-19T00:19:58.020Z,46.00
2018-03-19T00:22:26.269Z,46.00
2018-03-19T00:24:54.521Z,46.20
2018-03-19T00:27:22.788Z,46.10
2018-03-19T00:29:51.100Z,45.90
2018-03-19T00:32:19.400Z,45.70
2018-03-19T00:34:47.650Z,46.00
2018-03-19T00:37:15.946Z,45.90
2018-03-19T00:39:44.213Z,46.00
2018-03-19T00:42:12.499Z,46.00
2018-03-19T00:44:40.754Z,46.20
2018-03-19T00:47:09.060Z,45.60
2018-03-19T00:49:37.373Z,45.60
2018-03-19T00:52:05.624Z,45.50
2018-03-19T00:54:34.682Z,45.60
2018-03-19T00:57:02.922Z,45.60
2018-03-19T00:59:31.168Z,45.50
2018-03-19T01:02:00.207Z,45.10
2018-03-19T01:04:28.504Z,45.10
2018-03-19T01:06:56.775Z,45.20
2018-03-19T01:09:25.023Z,45.30
2018-03-19T01:11:53.273Z,45.30
2018-03-19T01:14:22.314Z,45.40
2018-03-19T01:16:50.594Z,45.30
2018-03-19T01:19:18.835Z,45.00
2018-03-19T01:21:47.171Z,45.70
2018-03-19T01:24:16.214Z,45.20
2018-03-19T01:26:44.465Z,44.80
2018-03-19T01:29:12.763Z,45.20
2018-03-19T01:31:41.001Z,45.40
2018-03-19T01:34:09.270Z,45.30
2018-03-19T01:36:37.546Z,45.50
2018-03-19T01:39:05.833Z,45.40
2018-03-19T01:41:34.115Z,45.30
2018-03-19T01:44:02.420Z,45.10
2018-03-19T01:46:30.688Z,45.30
2018-03-19T01:48:58.942Z,45.40
2018-03-19T01:51:27.260Z,45.50
2018-03-19T01:53:55.517Z,44.70
2018-03-19T01:56:24.574Z,44.90
2018-03-19T01:58:52.870Z,44.90
2018-03-19T02:01:21.127Z,45.10
2018-03-19T02:03:49.405Z,45.10
2018-03-19T02:06:17.677Z,44.90
2018-03-19T02:08:45.957Z,45.00
2018-03-19T02:11:14.200Z,45.00
2018-03-19T02:13:42.501Z,44.60
2018-03-19T02:16:10.788Z,45.00
2018-03-19T02:18:39.066Z,45.00
2018-03-19T02:21:07.310Z,44.70
2018-03-19T02:23:35.629Z,45.00
2018-03-19T02:26:03.881Z,44.80
2018-03-19T02:28:32.213Z,44.70
2018-03-19T02:31:00.513Z,45.20
2018-03-19T02:33:28.789Z,45.30
2018-03-19T02:35:57.039Z,44.70
2018-03-19T02:38:26.135Z,45.00
2018-03-19T02:40:54.435Z,45.00
2018-03-19T02:43:22.680Z,44.70
2018-03-19T02:45:51.726Z,45.10
2018-03-19T02:48:19.977Z,45.00
2018-03-19T02:50:48.565Z,44.70
2018-03-19T02:53:16.849Z,44.70
2018-03-19T02:55:45.145Z,44.70
2018-03-19T02:58:13.404Z,44.60
2018-03-19T03:00:41.699Z,44.40
2018-03-19T03:03:09.989Z,44.90
2018-03-19T03:05:38.227Z,44.90
2018-03-19T03:08:06.507Z,44.90
2018-03-19T03:10:34.803Z,44.90
2018-03-19T03:13:03.052Z,44.80
2018-03-19T03:15:31.381Z,45.00
2018-03-19T03:17:59.637Z,45.10
2018-03-19T03:20:27.932Z,45.30
2018-03-19T03:22:56.212Z,44.80
2018-03-19T03:25:24.506Z,44.70
2018-03-19T03:27:52.789Z,44.70
2018-03-19T03:30:21.807Z,44.70
2018-03-19T03:32:50.126Z,44.70
2018-03-19T03:35:18.360Z,45.00
2018-03-19T03:37:46.628Z,44.90
2018-03-19T03:40:14.898Z,44.70
2018-03-19T03:42:43.967Z,44.50
2018-03-19T03:45:12.258Z,44.50
2018-03-19T03:47:41.352Z,44.80
2018-03-19T03:50:10.358Z,44.50
2018-03-19T03:52:38.631Z,44.50
2018-03-19T03:55:07.698Z,44.50
2018-03-19T03:57:36.769Z,44.70
2018-03-19T04:00:05.032Z,44.70
2018-03-19T04:02:33.325Z,44.50
2018-03-19T04:05:01.614Z,45.10
2018-03-19T04:07:29.854Z,44.80
2018-03-19T04:09:58.154Z,44.90
2018-03-19T04:12:26.428Z,44.50
2018-03-19T04:14:55.474Z,44.50
2018-03-19T04:17:24.494Z,44.50
2018-03-19T04:19:52.736Z,44.40
2018-03-19T04:22:21.795Z,44.30
2018-03-19T04:24:50.061Z,44.30
2018-03-19T04:27:18.360Z,44.70
2018-03-19T04:29:46.659Z,44.50
2018-03-19T04:32:15.748Z,44.50
2018-03-19T04:34:44.008Z,44.50
2018-03-19T04:37:12.280Z,44.40
2018-03-19T04:39:40.574Z,44.30
2018-03-19T04:42:08.900Z,44.40
2018-03-19T04:44:37.140Z,44.40
2018-03-19T04:47:06.162Z,44.40
2018-03-19T04:49:34.419Z,44.40
2018-03-19T04:52:03.452Z,45.00
2018-03-19T04:54:31.725Z,44.40
2018-03-19T04:57:00.026Z,44.30
2018-03-19T04:59:28.280Z,44.30
2018-03-19T05:01:56.595Z,44.40
2018-03-19T05:04:24.895Z,44.40
2018-03-19T05:06:53.914Z,44.30
2018-03-19T05:09:22.242Z,44.30
2018-03-19T05:11:50.539Z,44.30
2018-03-19T05:14:19.537Z,44.30
2018-03-19T05:16:47.805Z,44.20
2018-03-19T05:19:16.899Z,44.10
2018-03-19T05:21:45.274Z,44.10
2018-03-19T05:24:13.492Z,44.50
2018-03-19T05:26:41.808Z,44.10
2018-03-19T05:29:10.104Z,44.10
2018-03-19T05:31:38.444Z,44.20
2018-03-19T05:34:06.755Z,44.60
2018-03-19T05:36:35.034Z,44.10
2018-03-19T05:39:03.398Z,44.10
2018-03-19T05:41:31.652Z,43.90
2018-03-19T05:43:59.933Z,44.60
2018-03-19T05:46:28.188Z,44.10
2018-03-19T05:48:56.547Z,44.50
2018-03-19T05:51:25.590Z,44.40
2018-03-19T05:53:53.922Z,44.40
2018-03-19T05:56:22.216Z,44.20
2018-03-19T05:58:50.543Z,44.10
2018-03-19T06:01:18.855Z,44.10
2018-03-19T06:03:47.130Z,44.10
2018-03-19T06:06:15.382Z,44.20
2018-03-19T06:08:44.463Z,44.20
2018-03-19T06:11:12.747Z,44.10
2018-03-19T06:13:41.027Z,43.90
2018-03-19T06:16:09.368Z,43.60
2018-03-19T06:18:37.612Z,43.60
2018-03-19T06:21:05.938Z,43.70
2018-03-19T06:23:34.191Z,43.70
2018-03-19T06:26:02.497Z,43.70
2018-03-19T06:28:30.746Z,43.40
2018-03-19T06:30:59.032Z,43.70
2018-03-19T06:33:27.325Z,43.40
2018-03-19T06:35:55.588Z,43.50
2018-03-19T06:38:24.677Z,43.40
2018-03-19T06:40:52.975Z,43.40
2018-03-19T06:43:21.286Z,43.90
2018-03-19T06:45:50.294Z,43.50
2018-03-19T06:48:18.552Z,43.50
2018-03-19T06:50:47.582Z,43.30
2018-03-19T06:53:15.854Z,43.20
2018-03-19T06:55:44.101Z,43.30
2018-03-19T06:58:13.187Z,43.50
2018-03-19T07:00:41.479Z,43.50
2018-03-19T07:03:10.516Z,43.40
2018-03-19T07:05:38.796Z,43.50
2018-03-19T07:08:07.139Z,44.50
2018-03-19T07:10:35.372Z,44.70
2018-03-19T07:13:03.875Z,44.50
2018-03-19T07:15:32.907Z,43.70
2018-03-19T07:18:01.219Z,43.60
2018-03-19T07:20:29.520Z,43.30
2018-03-19T07:22:57.771Z,43.20
2018-03-19T07:25:26.048Z,43.50
2018-03-19T07:27:54.293Z,43.40
2018-03-19T07:30:22.594Z,43.40
2018-03-19T07:32:50.841Z,43.00
2018-03-19T07:35:19.161Z,43.20
2018-03-19T07:37:47.427Z,43.40
2018-03-19T07:40:15.760Z,43.60
2018-03-19T07:42:44.015Z,43.50
2018-03-19T07:45:13.070Z,43.60
2018-03-19T07:47:41.373Z,43.60
2018-03-19T07:50:09.597Z,43.50
2018-03-19T07:52:37.881Z,43.60
2018-03-19T07:55:06.159Z,43.60
2018-03-19T07:57:34.425Z,43.20
2018-03-19T08:00:02.729Z,43.20
2018-03-19T08:02:30.997Z,43.20
2018-03-19T08:04:59.276Z,43.30
2018-03-19T08:07:27.596Z,43.00
2018-03-19T08:09:55.839Z,43.20
2018-03-19T08:12:24.136Z,43.00
2018-03-19T08:14:52.400Z,43.30
2018-03-19T08:17:20.633Z,43.50
2018-03-19T08:19:48.964Z,43.10
2018-03-19T08:22:17.210Z,42.80
2018-03-19T08:24:45.511Z,42.50
2018-03-19T08:27:13.776Z,43.00
2018-03-19T08:29:42.080Z,43.00
2018-03-19T08:32:10.325Z,42.70
2018-03-19T08:34:39.375Z,43.40
2018-03-19T08:37:07.665Z,43.30
2018-03-19T08:39:35.973Z,42.90
2018-03-19T08:42:04.215Z,42.50
2018-03-19T08:44:32.525Z,42.80
2018-03-19T08:47:00.765Z,42.60
2018-03-19T08:49:28.997Z,42.40
2018-03-19T08:51:57.278Z,42.60
2018-03-19T08:54:25.567Z,42.80
2018-03-19T08:56:54.603Z,42.80
2018-03-19T08:59:22.890Z,42.70
2018-03-19T09:01:51.154Z,42.50
2018-03-19T09:04:19.437Z,42.50
2018-03-19T09:06:47.739Z,42.30
2018-03-19T09:09:15.981Z,42.80
2018-03-19T09:11:44.292Z,42.90
2018-03-19T09:14:12.545Z,42.60
2018-03-19T09:16:40.805Z,43.20
2018-03-19T09:19:09.105Z,42.30
2018-03-19T09:21:37.401Z,42.20
2018-03-19T09:24:05.698Z,42.30
2018-03-19T09:26:33.975Z,42.40
2018-03-19T09:29:02.225Z,42.80
2018-03-19T09:31:30.521Z,42.20
2018-03-19T09:33:58.826Z,41.40
2018-03-19T09:36:27.822Z,42.30
2018-03-19T09:38:56.151Z,42.30
2018-03-19T09:41:24.464Z,42.20
2018-03-19T09:43:53.497Z,42.80
2018-03-19T09:46:21.812Z,42.80
2018-03-19T09:48:50.050Z,42.40
2018-03-19T09:51:20.154Z,42.90
2018-03-19T09:53:48.437Z,42.40
2018-03-19T09:56:16.706Z,42.60
2018-03-19T09:58:44.991Z,42.80
2018-03-19T10:01:13.294Z,42.70
2018-03-19T10:03:41.588Z,43.30
2018-03-19T10:06:09.902Z,42.10
2018-03-19T10:08:38.193Z,42.80
2018-03-19T10:11:06.477Z,42.70
2018-03-19T10:13:34.737Z,42.80
2018-03-19T10:16:03.755Z,43.50
2018-03-19T10:18:32.092Z,43.50
2018-03-19T10:21:00.412Z,43.30
2018-03-19T10:23:28.648Z,43.30
2018-03-19T10:25:57.659Z,43.10
2018-03-19T10:28:25.915Z,43.10
2018-03-19T10:30:54.941Z,43.50
2018-03-19T10:33:23.255Z,43.50
2018-03-19T10:35:51.630Z,43.10
2018-03-19T10:38:19.931Z,43.70
2018-03-19T10:40:48.194Z,43.70
2018-03-19T10:43:16.484Z,43.80
2018-03-19T10:45:44.770Z,44.00
2018-03-19T10:48:13.025Z,43.20
2018-03-19T10:50:41.394Z,44.50
2018-03-19T10:53:09.698Z,42.30
2018-03-19T10:55:37.939Z,43.30
2018-03-19T10:58:06.995Z,42.00
2018-03-19T11:00:35.321Z,42.00
2018-03-19T11:03:06.722Z,44.10
2018-03-19T11:05:41.397Z,42.90
2018-03-19T11:08:09.696Z,42.90
2018-03-19T11:10:37.947Z,43.50
2018-03-19T11:13:06.178Z,42.40
2018-03-19T11:15:34.444Z,43.50
2018-03-19T11:18:03.500Z,42.80
2018-03-19T11:20:31.854Z,42.70
2018-03-19T11:23:00.197Z,43.30
2018-03-19T11:25:29.362Z,43.70
2018-03-19T11:27:57.648Z,43.00
2018-03-19T11:30:26.148Z,42.60
2018-03-19T11:32:55.150Z,41.80
2018-03-19T11:35:24.183Z,42.80
2018-03-19T11:37:52.426Z,42.80
2018-03-19T11:40:20.717Z,42.80
2018-03-19T11:42:48.994Z,41.80
2018-03-19T11:45:17.236Z,41.20
2018-03-19T11:47:45.494Z,40.50
2018-03-19T11:50:13.792Z,42.00
2018-03-19T11:52:42.889Z,43.50
2018-03-19T11:55:11.933Z,42.30
2018-03-19T11:57:40.236Z,42.30
2018-03-19T12:00:08.565Z,40.00
2018-03-19T12:02:36.888Z,42.00
2018-03-19T12:05:05.146Z,42.60
2018-03-19T12:07:33.440Z,43.90
2018-03-19T12:10:01.744Z,41.60
2018-03-19T12:12:30.835Z,43.90
2018-03-19T12:14:59.148Z,43.80
2018-03-19T12:17:27.396Z,44.20
2018-03-19T12:19:56.482Z,42.70
2018-03-19T12:22:24.735Z,42.70
2018-03-19T12:24:53.095Z,42.40
2018-03-19T12:27:21.357Z,44.80
2018-03-19T12:29:49.617Z,40.50
2018-03-19T12:32:17.887Z,44.60
2018-03-19T12:34:46.176Z,44.20
2018-03-19T12:37:14.434Z,42.90
2018-03-19T12:39:42.686Z,41.20
2018-03-19T12:42:10.990Z,45.20
2018-03-19T12:44:40.000Z,42.30
2018-03-19T12:47:08.294Z,42.30
2018-03-19T12:49:36.616Z,43.20
2018-03-19T12:52:04.869Z,43.50
2018-03-19T12:54:33.197Z,40.40
2018-03-19T12:57:01.448Z,42.40
2018-03-19T12:59:29.772Z,38.50
2018-03-19T13:01:58.070Z,40.00
2018-03-19T13:04:26.386Z,37.70
2018-03-19T13:06:55.561Z,39.70
2018-03-19T13:09:23.821Z,39.50
2018-03-19T13:11:52.135Z,38.80
2018-03-19T13:14:20.443Z,37.70
2018-03-19T13:16:48.717Z,38.70
2018-03-19T13:19:16.971Z,37.50
2018-03-19T13:21:45.997Z,36.40
2018-03-19T13:24:14.342Z,36.30
2018-03-19T13:26:43.354Z,35.00
2018-03-19T13:29:11.657Z,34.80
2018-03-19T13:31:40.026Z,35.30
2018-03-19T13:34:08.358Z,35.50
2018-03-19T13:36:36.657Z,34.40
2018-03-19T13:39:05.747Z,34.60
2018-03-19T13:41:34.798Z,33.80
2018-03-19T13:44:03.129Z,33.90
2018-03-19T13:46:32.224Z,32.90
2018-03-19T13:49:00.514Z,32.80
2018-03-19T13:51:28.841Z,35.00
2018-03-19T13:53:57.202Z,30.00
2018-03-19T13:56:25.534Z,30.40
2018-03-19T13:58:54.571Z,31.50
2018-03-19T14:01:22.902Z,31.20
2018-03-19T14:03:51.971Z,29.80
2018-03-19T14:06:20.273Z,29.90
2018-03-19T14:08:49.302Z,28.90
2018-03-19T14:11:17.557Z,28.60
2018-03-19T14:13:45.838Z,31.30
2018-03-19T14:16:14.164Z,29.90
2018-03-19T14:18:42.489Z,29.20
2018-03-19T14:21:10.763Z,28.10
2018-03-19T14:23:39.074Z,29.20
2018-03-19T14:26:07.341Z,28.90
2018-03-19T14:28:35.646Z,28.70
2018-03-19T14:31:03.938Z,26.90
2018-03-19T14:33:32.242Z,26.40
2018-03-19T14:36:01.284Z,26.40
2018-03-19T14:38:29.544Z,26.30
2018-03-19T14:40:57.850Z,26.40
2018-03-19T14:43:26.155Z,26.80
2018-03-19T14:45:55.273Z,27.40
2018-03-19T14:48:23.577Z,26.80
2018-03-19T14:50:51.946Z,26.70
2018-03-19T14:53:20.201Z,27.50
2018-03-19T14:55:48.502Z,27.20
2018-03-19T14:58:16.836Z,27.60
2018-03-19T15:00:45.126Z,27.20
2018-03-19T15:03:14.145Z,28.50
2018-03-19T15:05:42.467Z,28.50
2018-03-19T15:08:10.831Z,27.10
2018-03-19T15:10:39.082Z,28.30
2018-03-19T15:13:07.394Z,28.80
2018-03-19T15:15:35.710Z,29.40
2018-03-19T15:18:04.719Z,29.50
2018-03-19T15:20:33.028Z,29.50
2018-03-19T15:23:01.436Z,29.30
2018-03-19T15:25:29.811Z,29.80
2018-03-19T15:27:58.058Z,29.10
2018-03-19T15:30:26.372Z,28.40
2018-03-19T15:32:54.623Z,29.10
2018-03-19T15:35:22.904Z,29.90
2018-03-19T15:37:51.204Z,30.10
2018-03-19T15:40:19.451Z,30.00
2018-03-19T15:42:47.749Z,30.50
2018-03-19T15:45:16.035Z,30.30
2018-03-19T15:47:44.305Z,31.10
2018-03-19T15:50:12.593Z,30.20
2018-03-19T15:52:41.653Z,30.60
2018-03-19T15:55:09.957Z,30.60
2018-03-19T15:57:38.207Z,30.60
2018-03-19T16:00:06.528Z,31.20
2018-03-19T16:02:35.567Z,30.80
2018-03-19T16:05:03.871Z,30.70
2018-03-19T16:07:32.140Z,30.80
2018-03-19T16:10:00.407Z,31.30
2018-03-19T16:12:29.503Z,31.50
2018-03-19T16:14:57.824Z,31.50
2018-03-19T16:17:26.905Z,31.80
2018-03-19T16:19:55.142Z,31.70
2018-03-19T16:22:23.456Z,32.20
2018-03-19T16:24:51.768Z,31.70
2018-03-19T16:27:20.142Z,32.00
2018-03-19T16:29:48.367Z,31.90
2018-03-19T16:32:16.600Z,32.10
2018-03-19T16:34:44.928Z,32.30
2018-03-19T16:37:13.257Z,31.90
2018-03-19T16:39:41.532Z,32.20
2018-03-19T16:42:09.801Z,32.10
2018-03-19T16:44:38.888Z,32.30
2018-03-19T16:47:07.912Z,32.40
2018-03-19T16:49:36.156Z,32.40
2018-03-19T16:52:05.240Z,32.60
2018-03-19T16:54:33.556Z,32.60
2018-03-19T16:57:01.848Z,33.30
2018-03-19T16:59:30.086Z,33.10
2018-03-19T17:01:59.154Z,33.20
2018-03-19T17:04:27.451Z,33.20
2018-03-19T17:06:56.568Z,33.50
2018-03-19T17:09:24.836Z,33.40
2018-03-19T17:11:53.064Z,33.50
2018-03-19T17:14:21.344Z,33.40
2018-03-19T17:16:49.644Z,33.60
2018-03-19T17:19:17.953Z,33.80
2018-03-19T17:21:46.258Z,34.00
2018-03-19T17:24:14.592Z,34.00
2018-03-19T17:26:42.828Z,34.20
2018-03-19T17:29:11.128Z,34.10
2018-03-19T17:31:39.385Z,34.30
2018-03-19T17:34:08.507Z,34.60
2018-03-19T17:36:36.796Z,34.30
2018-03-19T17:39:05.814Z,34.60
2018-03-19T17:41:34.182Z,34.50
2018-03-19T17:44:02.392Z,34.60
2018-03-19T17:46:30.682Z,34.60
2018-03-19T17:48:58.982Z,34.70
2018-03-19T17:51:27.229Z,34.80
2018-03-19T17:53:55.545Z,34.70
2018-03-19T17:56:24.613Z,34.90
2018-03-19T17:58:52.931Z,34.90
2018-03-19T18:01:21.241Z,35.00
2018-03-19T18:03:49.570Z,35.20
2018-03-19T18:06:18.625Z,35.30
2018-03-19T18:08:46.861Z,35.30
2018-03-19T18:11:15.112Z,35.30
2018-03-19T18:13:44.123Z,35.40
2018-03-19T18:16:12.388Z,35.40
2018-03-19T18:18:41.454Z,35.60
2018-03-19T18:21:09.722Z,35.60
2018-03-19T18:23:38.043Z,35.60
2018-03-19T18:26:06.330Z,35.60
2018-03-19T18:28:34.587Z,35.80
2018-03-19T18:31:02.902Z,35.80
2018-03-19T18:33:31.202Z,36.00
2018-03-19T18:35:59.463Z,35.80
2018-03-19T18:38:27.753Z,36.00
2018-03-19T18:40:56.043Z,36.10
2018-03-19T18:43:24.304Z,35.90
2018-03-19T18:45:53.383Z,36.10
2018-03-19T18:48:21.679Z,36.00
2018-03-19T18:50:49.944Z,36.20
2018-03-19T18:53:18.277Z,36.30
2018-03-19T18:55:47.289Z,36.50
2018-03-19T18:58:15.575Z,36.50
2018-03-19T19:00:43.879Z,36.50
2018-03-19T19:03:12.178Z,36.40
2018-03-19T19:05:40.478Z,36.50
2018-03-19T19:08:09.540Z,36.70
2018-03-19T19:10:37.865Z,36.70
2018-03-19T19:13:06.943Z,36.90
2018-03-19T19:15:35.273Z,36.90
2018-03-19T19:18:03.530Z,36.70
2018-03-19T19:20:31.829Z,36.70
2018-03-19T19:23:00.111Z,36.80
2018-03-19T19:25:28.425Z,36.80
2018-03-19T19:27:56.725Z,37.10
2018-03-19T19:30:25.132Z,37.00
2018-03-19T19:32:53.451Z,37.00
2018-03-19T19:35:21.799Z,37.20
2018-03-19T19:37:50.120Z,37.40
2018-03-19T19:40:18.446Z,37.30
2018-03-19T19:42:46.713Z,37.30
2018-03-19T19:45:15.026Z,37.30
2018-03-19T19:47:43.304Z,37.40
2018-03-19T19:50:11.581Z,37.50
2018-03-19T19:52:39.869Z,37.30
2018-03-19T19:55:08.122Z,37.30
2018-03-19T19:57:36.397Z,37.40
2018-03-19T20:00:04.643Z,37.40
2018-03-19T20:02:32.969Z,37.50
2018-03-19T20:05:01.268Z,37.30
2018-03-19T20:07:30.345Z,37.40
2018-03-19T20:09:58.597Z,37.50
2018-03-19T20:12:26.964Z,37.60
2018-03-19T20:14:55.257Z,37.70
2018-03-19T20:17:24.523Z,37.70
2018-03-19T20:19:52.832Z,37.80
2018-03-19T20:22:21.112Z,37.80
2018-03-19T20:24:49.405Z,37.80
2018-03-19T20:27:17.687Z,38.00
2018-03-19T20:29:46.012Z,37.90
2018-03-19T20:32:14.312Z,38.10
2018-03-19T20:34:42.620Z,38.10
2018-03-19T20:37:10.894Z,38.00
2018-03-19T20:39:39.177Z,38.30
2018-03-19T20:42:07.452Z,38.20
2018-03-19T20:44:35.713Z,38.40
2018-03-19T20:47:04.012Z,38.40
2018-03-19T20:49:32.305Z,38.20
2018-03-19T20:52:01.671Z,38.00
2018-03-19T20:54:30.009Z,38.00
2018-03-19T20:56:59.110Z,38.30
2018-03-19T20:59:27.420Z,38.30
2018-03-19T21:01:55.702Z,38.30
2018-03-19T21:04:24.033Z,38.10
2018-03-19T21:06:52.281Z,38.10
2018-03-19T21:09:21.377Z,38.30
2018-03-19T21:11:50.430Z,38.20
2018-03-19T21:14:18.725Z,38.10
2018-03-19T21:16:46.987Z,38.30
2018-03-19T21:19:15.276Z,38.30
2018-03-19T21:21:43.533Z,38.10
2018-03-19T21:24:11.795Z,38.10
2018-03-19T21:26:40.149Z,38.20
2018-03-19T21:29:08.403Z,38.10
2018-03-19T21:31:36.708Z,38.30
2018-03-19T21:34:04.985Z,38.50
2018-03-19T21:36:33.245Z,38.90
2018-03-19T21:39:02.334Z,38.40
2018-03-19T21:41:30.614Z,38.40
2018-03-19T21:43:59.710Z,38.30
2018-03-19T21:46:28.806Z,38.40
2018-03-19T21:48:57.106Z,38.40
2018-03-19T21:51:25.382Z,38.40
2018-03-19T21:53:53.626Z,38.40
2018-03-19T21:56:22.738Z,38.40
2018-03-19T21:58:51.741Z,38.50
2018-03-19T22:01:20.030Z,38.50
2018-03-19T22:03:48.325Z,38.40
2018-03-19T22:06:16.594Z,38.40
2018-03-19T22:08:44.889Z,38.40
2018-03-19T22:11:13.214Z,38.50
2018-03-19T22:13:42.220Z,38.50
2018-03-19T22:16:10.581Z,38.50
2018-03-19T22:18:39.630Z,38.50
2018-03-19T22:21:07.889Z,38.50
2018-03-19T22:23:37.079Z,38.40
2018-03-19T22:26:05.411Z,38.50
2018-03-19T22:28:33.706Z,38.40
2018-03-19T22:31:02.790Z,38.60
2018-03-19T22:33:31.041Z,38.50
2018-03-19T22:35:59.280Z,39.20
2018-03-19T22:38:27.557Z,38.50
2018-03-19T22:40:55.802Z,38.60
2018-03-19T22:43:24.854Z,38.60
2018-03-19T22:45:53.154Z,38.60
2018-03-19T22:48:21.402Z,38.50
2018-03-19T22:50:49.688Z,38.50
2018-03-19T22:53:17.977Z,38.50
2018-03-19T22:55:46.273Z,38.60
2018-03-19T22:58:14.525Z,38.60
2018-03-19T23:00:42.831Z,38.50
2018-03-19T23:03:11.063Z,38.60
2018-03-19T23:05:39.451Z,38.70
2018-03-19T23:08:07.694Z,38.60
2018-03-19T23:10:35.958Z,38.80
2018-03-19T23:13:04.208Z,38.60
2018-03-19T23:15:33.264Z,38.60
2018-03-19T23:18:01.513Z,38.60
2018-03-19T23:20:29.795Z,38.60
2018-03-19T23:22:58.073Z,38.60
2018-03-19T23:25:26.380Z,38.70
2018-03-19T23:27:54.668Z,38.60
2018-03-19T23:30:22.956Z,38.70
2018-03-19T23:32:51.185Z,38.70
2018-03-19T23:35:19.458Z,38.70
2018-03-19T23:37:47.715Z,38.60
2018-03-19T23:40:15.988Z,38.50
2018-03-19T23:42:44.231Z,38.50
2018-03-19T23:45:12.534Z,38.50
2018-03-19T23:47:41.545Z,38.60
2018-03-19T23:50:09.784Z,38.50
2018-03-19T23:52:38.044Z,38.50
2018-03-19T23:55:06.347Z,38.70
2018-03-19T23:57:35.414Z,38.80
